createdAt,value
2018-10-02T00:00:37.268Z,1017.66
2018-10-02T00:01:37.266Z,1017.62
2018-10-02T00:02:37.258Z,1017.65
2018-10-02T00:03:37.251Z,1017.60
2018-10-02T00:04:37.243Z,1017.64
2018-10-02T00:05:37.271Z,1017.63
2018-10-02T00:06:37.223Z,1017.62
2018-10-02T00:07:37.222Z,1017.61
2018-10-02T00:08:37.216Z,1017.59
2018-10-02T00:09:37.202Z,1017.58
2018-10-02T00:10:37.195Z,1017.58
2018-10-02T00:11:37.188Z,1017.53
2018-10-02T00:12:37.180Z,1017.55
2018-10-02T00:13:37.177Z,1017.51
2018-10-02T00:14:37.170Z,1017.48
2018-10-02T00:15:37.167Z,1017.51
2018-10-02T00:16:37.156Z,1017.51
2018-10-02T00:17:37.201Z,1017.47
2018-10-02T00:18:37.136Z,1017.47
2018-10-02T00:19:37.132Z,1017.47
2018-10-02T00:20:37.121Z,1017.43
2018-10-02T00:21:37.118Z,1017.47
2018-10-02T00:22:37.112Z,1017.46
2018-10-02T00:23:37.104Z,1017.41
2018-10-02T00:24:37.092Z,1017.43
2018-10-02T00:25:37.094Z,1017.38
2018-10-02T00:26:37.085Z,1017.35
2018-10-02T00:27:37.076Z,1017.38
2018-10-02T00:28:37.067Z,1017.33
2018-10-02T00:29:37.058Z,1017.41
2018-10-02T00:30:37.049Z,1017.38
2018-10-02T00:31:37.163Z,1017.35
2018-10-02T00:32:37.034Z,1017.30
2018-10-02T00:33:37.032Z,1017.32
2018-10-02T00:34:37.025Z,1017.31
2018-10-02T00:35:37.017Z,1017.23
2018-10-02T00:36:37.009Z,1017.30
2018-10-02T00:37:36.997Z,1017.20
2018-10-02T00:38:36.993Z,1017.16
2018-10-02T00:39:36.987Z,1017.17
2018-10-02T00:40:36.980Z,1017.16
2018-10-02T00:41:36.969Z,1017.20
2018-10-02T00:42:36.970Z,1017.20
2018-10-02T00:43:36.965Z,1017.19
2018-10-02T00:44:36.946Z,1017.19
2018-10-02T00:45:36.945Z,1017.19
2018-10-02T00:46:36.937Z,1017.17
2018-10-02T00:47:36.934Z,1017.17
2018-10-02T00:48:36.922Z,1017.14
2018-10-02T00:49:36.909Z,1017.06
2018-10-02T00:50:36.903Z,1017.09
2018-10-02T00:51:36.896Z,1017.05
2018-10-02T00:52:36.888Z,1017.04
2018-10-02T00:53:36.886Z,1017.11
2018-10-02T00:54:36.878Z,1017.06
2018-10-02T00:55:36.867Z,1017.07
2018-10-02T00:56:36.859Z,1017.03
2018-10-02T00:57:36.857Z,1017.07
2018-10-02T00:58:36.850Z,1017.03
2018-10-02T00:59:36.842Z,1017.04
2018-10-02T01:00:36.834Z,1017.10
2018-10-02T01:01:36.823Z,1017.12
2018-10-02T01:02:36.815Z,1017.13
2018-10-02T01:03:36.808Z,1017.19
2018-10-02T01:04:36.799Z,1017.12
2018-10-02T01:05:36.801Z,1017.12
2018-10-02T01:06:36.791Z,1017.16
2018-10-02T01:07:36.783Z,1017.16
2018-10-02T01:08:36.775Z,1017.21
2018-10-02T01:09:36.763Z,1017.15
2018-10-02T01:10:36.756Z,1017.15
2018-10-02T01:11:36.753Z,1017.15
2018-10-02T01:12:36.746Z,1017.12
2018-10-02T01:13:36.732Z,1017.11
2018-10-02T01:14:36.726Z,1017.07
2018-10-02T01:15:36.720Z,1017.12
2018-10-02T01:16:36.712Z,1017.09
2018-10-02T01:17:36.709Z,1017.07
2018-10-02T01:18:36.703Z,1017.09
2018-10-02T01:19:36.694Z,1017.12
2018-10-02T01:20:36.685Z,1017.10
2018-10-02T01:21:36.674Z,1017.16
2018-10-02T01:22:36.671Z,1017.14
2018-10-02T01:23:36.661Z,1017.15
2018-10-02T01:24:36.652Z,1017.11
2018-10-02T01:25:36.649Z,1017.11
2018-10-02T01:26:36.641Z,1017.10
2018-10-02T01:27:36.634Z,1017.11
2018-10-02T01:28:36.626Z,1017.12
2018-10-02T01:29:36.620Z,1017.09
2018-10-02T01:30:36.612Z,1017.11
2018-10-02T01:31:36.604Z,1017.05
2018-10-02T01:32:36.596Z,1017.08
2018-10-02T01:33:36.585Z,1017.05
2018-10-02T01:34:36.577Z,1017.07
2018-10-02T01:35:36.571Z,1017.05
2018-10-02T01:36:36.566Z,1017.09
2018-10-02T01:37:36.560Z,1017.08
2018-10-02T01:38:36.554Z,1016.99
2018-10-02T01:39:36.551Z,1016.98
2018-10-02T01:40:36.538Z,1016.98
2018-10-02T01:41:36.526Z,1016.98
2018-10-02T01:42:36.519Z,1016.94
2018-10-02T01:43:36.516Z,1016.95
2018-10-02T01:44:36.508Z,1016.93
2018-10-02T01:45:36.496Z,1016.90
2018-10-02T01:46:36.489Z,1016.88
2018-10-02T01:47:36.480Z,1016.89
2018-10-02T01:48:36.474Z,1016.84
2018-10-02T01:49:36.470Z,1016.87
2018-10-02T01:50:36.463Z,1016.81
2018-10-02T01:51:36.456Z,1016.77
2018-10-02T01:52:36.452Z,1016.75
2018-10-02T01:53:36.436Z,1016.75
2018-10-02T01:54:36.429Z,1016.72
2018-10-02T01:55:36.421Z,1016.73
2018-10-02T01:56:36.413Z,1016.75
2018-10-02T01:57:36.413Z,1016.71
2018-10-02T01:58:36.404Z,1016.76
2018-10-02T01:59:36.391Z,1016.76
2018-10-02T02:00:36.383Z,1016.77
2018-10-02T02:01:36.379Z,1016.71
2018-10-02T02:02:36.374Z,1016.73
2018-10-02T02:03:36.364Z,1016.71
2018-10-02T02:04:36.356Z,1016.69
2018-10-02T02:05:36.345Z,1016.72
2018-10-02T02:06:36.337Z,1016.69
2018-10-02T02:07:36.330Z,1016.65
2018-10-02T02:08:36.320Z,1016.65
2018-10-02T02:09:36.320Z,1016.63
2018-10-02T02:10:36.311Z,1016.65
2018-10-02T02:11:36.305Z,1016.59
2018-10-02T02:12:36.296Z,1016.59
2018-10-02T02:13:36.284Z,1016.51
2018-10-02T02:14:36.277Z,1016.52
2018-10-02T02:15:36.274Z,1016.48
2018-10-02T02:16:36.266Z,1016.52
2018-10-02T02:17:36.253Z,1016.51
2018-10-02T02:18:36.246Z,1016.50
2018-10-02T02:19:36.238Z,1016.51
2018-10-02T02:20:36.230Z,1016.52
2018-10-02T02:21:36.226Z,1016.53
2018-10-02T02:22:36.219Z,1016.52
2018-10-02T02:23:36.213Z,1016.53
2018-10-02T02:24:36.205Z,1016.44
2018-10-02T02:25:36.192Z,1016.49
2018-10-02T02:26:36.184Z,1016.50
2018-10-02T02:27:36.177Z,1016.46
2018-10-02T02:28:36.172Z,1016.50
2018-10-02T02:29:36.166Z,1016.49
2018-10-02T02:30:36.159Z,1016.42
2018-10-02T02:31:36.147Z,1016.44
2018-10-02T02:32:36.139Z,1016.50
2018-10-02T02:33:36.136Z,1016.47
2018-10-02T02:34:36.128Z,1016.47
2018-10-02T02:35:36.129Z,1016.41
2018-10-02T02:36:36.113Z,1016.43
2018-10-02T02:37:36.101Z,1016.41
2018-10-02T02:38:36.095Z,1016.35
2018-10-02T02:39:36.087Z,1016.31
2018-10-02T02:40:36.080Z,1016.31
2018-10-02T02:41:36.076Z,1016.37
2018-10-02T02:42:36.068Z,1016.32
2018-10-02T02:43:36.060Z,1016.26
2018-10-02T02:44:36.052Z,1016.27
2018-10-02T02:45:36.039Z,1016.27
2018-10-02T02:46:36.033Z,1016.24
2018-10-02T02:47:36.030Z,1016.25
2018-10-02T02:48:36.021Z,1016.21
2018-10-02T02:49:36.010Z,1016.16
2018-10-02T02:50:36.003Z,1016.18
2018-10-02T02:51:35.995Z,1016.13
2018-10-02T02:52:36.077Z,1016.12
2018-10-02T02:53:35.985Z,1016.14
2018-10-02T02:54:35.978Z,1016.12
2018-10-02T02:55:35.970Z,1016.14
2018-10-02T02:56:35.962Z,1016.15
2018-10-02T02:57:35.950Z,1016.18
2018-10-02T02:58:35.942Z,1016.17
2018-10-02T02:59:35.935Z,1016.17
2018-10-02T03:00:35.927Z,1016.14
2018-10-02T03:01:35.923Z,1016.10
2018-10-02T03:02:35.917Z,1016.07
2018-10-02T03:03:35.905Z,1016.07
2018-10-02T03:04:35.899Z,1015.95
2018-10-02T03:05:35.894Z,1016.01
2018-10-02T03:06:35.886Z,1016.07
2018-10-02T03:07:35.879Z,1016.02
2018-10-02T03:08:35.882Z,1015.96
2018-10-02T03:09:35.863Z,1015.97
2018-10-02T03:10:35.852Z,1015.97
2018-10-02T03:11:35.845Z,1015.94
2018-10-02T03:12:35.836Z,1015.98
2018-10-02T03:13:35.834Z,1015.95
2018-10-02T03:14:35.826Z,1015.96
2018-10-02T03:15:35.819Z,1015.93
2018-10-02T03:16:35.809Z,1015.88
2018-10-02T03:17:35.801Z,1015.94
2018-10-02T03:18:35.791Z,1015.90
2018-10-02T03:19:35.787Z,1015.94
2018-10-02T03:20:35.783Z,1015.95
2018-10-02T03:21:35.795Z,1015.95
2018-10-02T03:22:35.761Z,1015.85
2018-10-02T03:23:35.754Z,1015.90
2018-10-02T03:24:35.746Z,1015.85
2018-10-02T03:25:35.743Z,1015.87
2018-10-02T03:26:35.740Z,1015.84
2018-10-02T03:27:35.728Z,1015.88
2018-10-02T03:28:35.720Z,1015.90
2018-10-02T03:29:35.708Z,1015.87
2018-10-02T03:30:35.700Z,1015.94
2018-10-02T03:31:35.693Z,1015.93
2018-10-02T03:32:35.688Z,1015.83
2018-10-02T03:33:35.682Z,1015.80
2018-10-02T03:34:35.675Z,1015.75
2018-10-02T03:35:35.663Z,1015.72
2018-10-02T03:36:35.654Z,1015.66
2018-10-02T03:37:35.655Z,1015.71
2018-10-02T03:38:35.654Z,1015.68
2018-10-02T03:39:35.638Z,1015.78
2018-10-02T03:40:35.629Z,1015.78
2018-10-02T03:41:35.617Z,1015.77
2018-10-02T03:42:35.610Z,1015.78
2018-10-02T03:43:35.607Z,1015.78
2018-10-02T03:44:35.594Z,1015.78
2018-10-02T03:45:35.591Z,1015.77
2018-10-02T03:46:35.584Z,1015.79
2018-10-02T03:47:35.577Z,1015.71
2018-10-02T03:48:35.578Z,1015.65
2018-10-02T03:49:35.560Z,1015.63
2018-10-02T03:50:35.551Z,1015.58
2018-10-02T03:51:35.551Z,1015.50
2018-10-02T03:52:35.539Z,1015.56
2018-10-02T03:53:35.528Z,1015.61
2018-10-02T03:54:35.519Z,1015.52
2018-10-02T03:55:35.513Z,1015.49
2018-10-02T03:56:35.505Z,1015.46
2018-10-02T03:57:35.500Z,1015.48
2018-10-02T03:58:35.494Z,1015.49
2018-10-02T03:59:35.491Z,1015.44
2018-10-02T04:00:35.478Z,1015.41
2018-10-02T04:01:35.465Z,1015.37
2018-10-02T04:02:35.459Z,1015.34
2018-10-02T04:03:35.489Z,1015.37
2018-10-02T04:04:35.444Z,1015.38
2018-10-02T04:05:35.441Z,1015.30
2018-10-02T04:06:35.437Z,1015.27
2018-10-02T04:07:35.422Z,1015.30
2018-10-02T04:08:35.414Z,1015.33
2018-10-02T04:09:35.413Z,1015.32
2018-10-02T04:10:35.404Z,1015.29
2018-10-02T04:11:35.396Z,1015.30
2018-10-02T04:12:35.388Z,1015.29
2018-10-02T04:13:35.376Z,1015.32
2018-10-02T04:14:35.369Z,1015.21
2018-10-02T04:15:35.361Z,1015.19
2018-10-02T04:16:35.353Z,1015.19
2018-10-02T04:17:35.350Z,1015.12
2018-10-02T04:18:35.342Z,1015.15
2018-10-02T04:19:35.336Z,1015.15
2018-10-02T04:20:35.381Z,1015.12
2018-10-02T04:21:35.315Z,1015.08
2018-10-02T04:22:35.309Z,1015.12
2018-10-02T04:23:35.305Z,1015.09
2018-10-02T04:24:35.298Z,1015.11
2018-10-02T04:25:35.287Z,1015.05
2018-10-02T04:26:35.283Z,1015.04
2018-10-02T04:27:35.269Z,1015.06
2018-10-02T04:28:35.262Z,1015.04
2018-10-02T04:29:35.259Z,1014.99
2018-10-02T04:30:35.254Z,1014.99
2018-10-02T04:31:35.244Z,1014.96
2018-10-02T04:32:35.238Z,1014.91
2018-10-02T04:33:35.289Z,1014.87
2018-10-02T04:34:35.217Z,1014.84
2018-10-02T04:35:35.210Z,1014.76
2018-10-02T04:36:35.208Z,1014.69
2018-10-02T04:37:35.200Z,1014.67
2018-10-02T04:38:35.191Z,1014.61
2018-10-02T04:39:35.278Z,1014.57
2018-10-02T04:40:35.171Z,1014.63
2018-10-02T04:41:35.167Z,1014.59
2018-10-02T04:42:35.160Z,1014.57
2018-10-02T04:43:35.153Z,1014.62
2018-10-02T04:44:35.144Z,1014.61
2018-10-02T04:45:35.133Z,1014.63
2018-10-02T04:46:35.137Z,1014.61
2018-10-02T04:47:35.121Z,1014.57
2018-10-02T04:48:35.109Z,1014.60
2018-10-02T04:49:35.106Z,1014.58
2018-10-02T04:50:35.102Z,1014.65
2018-10-02T04:51:35.092Z,1014.68
2018-10-02T04:52:35.085Z,1014.65
2018-10-02T04:53:35.070Z,1014.59
2018-10-02T04:54:35.065Z,1014.63
2018-10-02T04:55:35.065Z,1014.69
2018-10-02T04:56:35.053Z,1014.58
2018-10-02T04:57:35.041Z,1014.55
2018-10-02T04:58:35.034Z,1014.56
2018-10-02T04:59:35.028Z,1014.61
2018-10-02T05:00:35.018Z,1014.63
2018-10-02T05:01:35.014Z,1014.63
2018-10-02T05:02:35.013Z,1014.66
2018-10-02T05:03:35.000Z,1014.66
2018-10-02T05:04:34.993Z,1014.66
2018-10-02T05:05:34.981Z,1014.70
2018-10-02T05:06:34.978Z,1014.63
2018-10-02T05:07:34.965Z,1014.63
2018-10-02T05:08:35.048Z,1014.69
2018-10-02T05:09:34.956Z,1014.63
2018-10-02T05:10:34.948Z,1014.63
2018-10-02T05:11:34.935Z,1014.63
2018-10-02T05:12:34.926Z,1014.70
2018-10-02T05:13:34.925Z,1014.69
2018-10-02T05:14:34.917Z,1014.65
2018-10-02T05:15:34.910Z,1014.56
2018-10-02T05:16:34.900Z,1014.56
2018-10-02T05:17:34.890Z,1014.54
2018-10-02T05:18:34.882Z,1014.57
2018-10-02T05:19:34.874Z,1014.49
2018-10-02T05:20:34.900Z,1014.43
2018-10-02T05:21:34.868Z,1014.41
2018-10-02T05:22:34.855Z,1014.44
2018-10-02T05:23:34.849Z,1014.41
2018-10-02T05:24:34.841Z,1014.45
2018-10-02T05:25:34.829Z,1014.44
2018-10-02T05:26:34.828Z,1014.43
2018-10-02T05:27:34.856Z,1014.45
2018-10-02T05:28:34.811Z,1014.53
2018-10-02T05:29:34.799Z,1014.51
2018-10-02T05:30:34.792Z,1014.52
2018-10-02T05:31:34.784Z,1014.48
2018-10-02T05:32:34.776Z,1014.49
2018-10-02T05:33:34.781Z,1014.51
2018-10-02T05:34:34.764Z,1014.50
2018-10-02T05:35:34.853Z,1014.48
2018-10-02T05:36:34.751Z,1014.45
2018-10-02T05:37:34.739Z,1014.38
2018-10-02T05:38:34.731Z,1014.37
2018-10-02T05:39:34.723Z,1014.29
2018-10-02T05:40:34.716Z,1014.24
2018-10-02T05:41:34.712Z,1014.29
2018-10-02T05:42:34.762Z,1014.25
2018-10-02T05:43:34.693Z,1014.33
2018-10-02T05:44:34.684Z,1014.36
2018-10-02T05:45:34.682Z,1014.39
2018-10-02T05:46:34.675Z,1014.37
2018-10-02T05:47:34.669Z,1014.38
2018-10-02T05:48:34.660Z,1014.31
2018-10-02T05:49:34.647Z,1014.28
2018-10-02T05:50:34.688Z,1014.31
2018-10-02T05:51:34.637Z,1014.34
2018-10-02T05:52:34.625Z,1014.35
2018-10-02T05:53:34.623Z,1014.31
2018-10-02T05:54:34.615Z,1014.36
2018-10-02T05:55:34.607Z,1014.32
2018-10-02T05:56:34.599Z,1014.37
2018-10-02T05:57:34.588Z,1014.37
2018-10-02T05:58:34.582Z,1014.33
2018-10-02T05:59:34.578Z,1014.31
2018-10-02T06:00:34.570Z,1014.37
2018-10-02T06:01:34.558Z,1014.23
2018-10-02T06:02:34.559Z,1014.20
2018-10-02T06:03:34.544Z,1014.10
2018-10-02T06:04:34.539Z,1014.10
2018-10-02T06:05:34.533Z,1014.07
2018-10-02T06:06:34.527Z,1014.08
2018-10-02T06:07:34.520Z,1014.07
2018-10-02T06:08:34.511Z,1014.01
2018-10-02T06:09:34.498Z,1014.02
2018-10-02T06:10:34.495Z,1013.99
2018-10-02T06:11:34.485Z,1013.99
2018-10-02T06:12:34.477Z,1013.99
2018-10-02T06:13:34.474Z,1013.95
2018-10-02T06:14:34.466Z,1013.98
2018-10-02T06:15:34.455Z,1013.89
2018-10-02T06:16:34.447Z,1013.94
2018-10-02T06:17:34.447Z,1013.95
2018-10-02T06:18:34.441Z,1013.93
2018-10-02T06:19:34.430Z,1013.99
2018-10-02T06:20:34.423Z,1014.00
2018-10-02T06:21:34.410Z,1014.00
2018-10-02T06:22:34.403Z,1013.96
2018-10-02T06:23:34.396Z,1013.95
2018-10-02T06:24:34.442Z,1013.93
2018-10-02T06:25:34.385Z,1013.89
2018-10-02T06:26:34.381Z,1013.94
2018-10-02T06:27:34.372Z,1013.92
2018-10-02T06:28:34.362Z,1013.86
2018-10-02T06:29:34.352Z,1013.86
2018-10-02T06:30:34.343Z,1013.89
2018-10-02T06:31:34.342Z,1013.89
2018-10-02T06:32:34.377Z,1013.89
2018-10-02T06:33:34.322Z,1013.93
2018-10-02T06:34:34.314Z,1013.93
2018-10-02T06:35:34.307Z,1013.97
2018-10-02T06:36:34.316Z,1014.01
2018-10-02T06:37:34.296Z,1013.90
2018-10-02T06:38:34.456Z,1013.95
2018-10-02T06:39:34.281Z,1014.02
2018-10-02T06:40:34.273Z,1014.07
2018-10-02T06:41:34.263Z,1014.01
2018-10-02T06:42:34.256Z,1014.02
2018-10-02T06:43:34.262Z,1014.04
2018-10-02T06:44:34.325Z,1013.93
2018-10-02T06:45:34.236Z,1013.85
2018-10-02T06:46:34.230Z,1013.83
2018-10-02T06:47:34.218Z,1013.84
2018-10-02T06:48:34.210Z,1013.84
2018-10-02T06:49:34.208Z,1013.82
2018-10-02T06:50:34.205Z,1013.78
2018-10-02T06:51:34.280Z,1013.79
2018-10-02T06:52:34.405Z,1013.82
2018-10-02T06:53:34.173Z,1013.80
2018-10-02T06:54:34.165Z,1013.72
2018-10-02T06:55:34.157Z,1013.70
2018-10-02T06:56:34.219Z,1013.69
2018-10-02T06:57:34.146Z,1013.74
2018-10-02T06:58:34.139Z,1013.71
2018-10-02T06:59:34.133Z,1013.63
2018-10-02T07:00:34.156Z,1013.60
2018-10-02T07:01:34.119Z,1013.61
2018-10-02T07:02:34.140Z,1013.65
2018-10-02T07:03:34.103Z,1013.59
2018-10-02T07:04:34.098Z,1013.62
2018-10-02T07:05:34.083Z,1013.69
2018-10-02T07:06:34.231Z,1013.64
2018-10-02T07:07:34.068Z,1013.68
2018-10-02T07:08:34.127Z,1013.64
2018-10-02T07:09:34.057Z,1013.58
2018-10-02T07:10:34.054Z,1013.59
2018-10-02T07:11:34.043Z,1013.57
2018-10-02T07:12:34.096Z,1013.48
2018-10-02T07:13:34.023Z,1013.48
2018-10-02T07:14:34.073Z,1013.45
2018-10-02T07:15:34.010Z,1013.56
2018-10-02T07:16:34.000Z,1013.59
2018-10-02T07:17:34.074Z,1013.61
2018-10-02T07:18:33.992Z,1013.58
2018-10-02T07:19:33.979Z,1013.48
2018-10-02T07:20:33.976Z,1013.46
2018-10-02T07:21:33.969Z,1013.36
2018-10-02T07:22:33.963Z,1013.32
2018-10-02T07:23:33.954Z,1013.29
2018-10-02T07:24:33.946Z,1013.36
2018-10-02T07:25:33.934Z,1013.33
2018-10-02T07:26:33.970Z,1013.28
2018-10-02T07:27:34.016Z,1013.27
2018-10-02T07:28:33.911Z,1013.29
2018-10-02T07:29:33.909Z,1013.27
2018-10-02T07:30:33.943Z,1013.24
2018-10-02T07:31:33.896Z,1013.28
2018-10-02T07:32:33.942Z,1013.31
2018-10-02T07:33:33.879Z,1013.26
2018-10-02T07:34:33.872Z,1013.26
2018-10-02T07:35:33.866Z,1013.18
2018-10-02T07:36:33.872Z,1013.09
2018-10-02T07:37:33.844Z,1013.11
2018-10-02T07:38:33.929Z,1013.12
2018-10-02T07:39:33.832Z,1013.10
2018-10-02T07:40:33.823Z,1013.15
2018-10-02T07:41:33.882Z,1013.15
2018-10-02T07:42:33.812Z,1013.20
2018-10-02T07:43:33.806Z,1013.22
2018-10-02T07:44:33.829Z,1013.22
2018-10-02T07:45:33.786Z,1013.32
2018-10-02T07:46:33.778Z,1013.28
2018-10-02T07:47:33.860Z,1013.35
2018-10-02T07:48:33.858Z,1013.33
2018-10-02T07:49:33.760Z,1013.37
2018-10-02T07:50:33.807Z,1013.44
2018-10-02T07:51:33.742Z,1013.37
2018-10-02T07:52:33.734Z,1013.46
2018-10-02T07:53:33.788Z,1013.44
2018-10-02T07:54:33.724Z,1013.46
2018-10-02T07:55:33.752Z,1013.56
2018-10-02T07:56:33.746Z,1013.47
2018-10-02T07:57:33.697Z,1013.49
2018-10-02T07:58:33.690Z,1013.41
2018-10-02T07:59:33.762Z,1013.34
2018-10-02T08:00:33.677Z,1013.36
2018-10-02T08:01:33.673Z,1013.36
2018-10-02T08:02:33.734Z,1013.38
2018-10-02T08:03:33.659Z,1013.46
2018-10-02T08:04:33.650Z,1013.43
2018-10-02T08:05:33.673Z,1013.43
2018-10-02T08:06:33.635Z,1013.43
2018-10-02T08:07:33.632Z,1013.49
2018-10-02T08:08:33.667Z,1013.45
2018-10-02T08:09:33.609Z,1013.52
2018-10-02T08:10:33.602Z,1013.47
2018-10-02T08:11:33.636Z,1013.43
2018-10-02T08:12:33.588Z,1013.39
2018-10-02T08:13:33.650Z,1013.39
2018-10-02T08:14:33.591Z,1013.35
2018-10-02T08:15:33.571Z,1013.31
2018-10-02T08:16:33.562Z,1013.34
2018-10-02T08:17:33.567Z,1013.33
2018-10-02T08:18:33.545Z,1013.31
2018-10-02T08:19:33.540Z,1013.26
2018-10-02T08:20:33.584Z,1013.31
2018-10-02T08:21:33.526Z,1013.37
2018-10-02T08:22:33.519Z,1013.32
2018-10-02T08:23:33.571Z,1013.36
2018-10-02T08:24:33.499Z,1013.31
2018-10-02T08:25:33.496Z,1013.29
2018-10-02T08:26:33.550Z,1013.28
2018-10-02T08:27:33.484Z,1013.25
2018-10-02T08:28:33.474Z,1013.24
2018-10-02T08:29:33.517Z,1013.22
2018-10-02T08:30:33.456Z,1013.29
2018-10-02T08:31:33.450Z,1013.31
2018-10-02T08:32:33.521Z,1013.38
2018-10-02T08:33:33.439Z,1013.43
2018-10-02T08:34:33.433Z,1013.40
2018-10-02T08:35:33.430Z,1013.46
2018-10-02T08:36:33.470Z,1013.40
2018-10-02T08:37:33.406Z,1013.41
2018-10-02T08:38:33.410Z,1013.38
2018-10-02T08:39:33.395Z,1013.40
2018-10-02T08:40:33.388Z,1013.46
2018-10-02T08:41:33.378Z,1013.39
2018-10-02T08:42:33.373Z,1013.43
2018-10-02T08:43:33.493Z,1013.39
2018-10-02T08:44:33.432Z,1013.43
2018-10-02T08:45:33.357Z,1013.52
2018-10-02T08:46:33.348Z,1013.37
2018-10-02T08:47:33.372Z,1013.45
2018-10-02T08:48:33.327Z,1013.44
2018-10-02T08:49:33.329Z,1013.40
2018-10-02T08:50:33.329Z,1013.38
2018-10-02T08:51:33.323Z,1013.41
2018-10-02T08:52:33.306Z,1013.37
2018-10-02T08:53:33.355Z,1013.36
2018-10-02T08:54:33.288Z,1013.34
2018-10-02T08:55:33.287Z,1013.40
2018-10-02T08:56:33.278Z,1013.36
2018-10-02T08:57:33.268Z,1013.33
2018-10-02T08:58:33.263Z,1013.35
2018-10-02T08:59:33.254Z,1013.32
2018-10-02T09:00:33.271Z,1013.30
2018-10-02T09:01:33.250Z,1013.25
2018-10-02T09:02:33.241Z,1013.26
2018-10-02T09:03:33.233Z,1013.28
2018-10-02T09:04:33.226Z,1013.24
2018-10-02T09:05:33.215Z,1013.25
2018-10-02T09:06:33.268Z,1013.26
2018-10-02T09:07:33.204Z,1013.24
2018-10-02T09:08:33.196Z,1013.22
2018-10-02T09:09:33.194Z,1013.21
2018-10-02T09:10:33.186Z,1013.28
2018-10-02T09:11:33.177Z,1013.30
2018-10-02T09:12:33.201Z,1013.25
2018-10-02T09:13:33.166Z,1013.26
2018-10-02T09:14:33.161Z,1013.16
2018-10-02T09:15:33.189Z,1013.21
2018-10-02T09:16:33.269Z,1013.25
2018-10-02T09:17:33.145Z,1013.25
2018-10-02T09:18:33.181Z,1013.27
2018-10-02T09:19:33.121Z,1013.22
2018-10-02T09:20:33.115Z,1013.21
2018-10-02T09:21:33.168Z,1013.22
2018-10-02T09:22:33.106Z,1013.23
2018-10-02T09:23:33.101Z,1013.23
2018-10-02T09:24:33.194Z,1013.21
2018-10-02T09:25:33.081Z,1013.21
2018-10-02T09:26:33.084Z,1013.20
2018-10-02T09:27:33.142Z,1013.22
2018-10-02T09:28:33.163Z,1013.20
2018-10-02T09:29:33.053Z,1013.18
2018-10-02T09:30:33.116Z,1013.15
2018-10-02T09:31:33.040Z,1013.15
2018-10-02T09:32:33.032Z,1013.17
2018-10-02T09:33:33.038Z,1013.18
2018-10-02T09:34:33.023Z,1013.17
2018-10-02T09:35:33.017Z,1013.15
2018-10-02T09:36:33.069Z,1013.16
2018-10-02T09:37:32.998Z,1013.15
2018-10-02T09:38:32.995Z,1013.11
2018-10-02T09:39:32.996Z,1013.18
2018-10-02T09:40:32.977Z,1013.09
2018-10-02T09:41:32.977Z,1013.08
2018-10-02T09:42:32.992Z,1013.04
2018-10-02T09:43:33.036Z,1013.07
2018-10-02T09:44:32.949Z,1013.03
2018-10-02T09:45:33.032Z,1013.05
2018-10-02T09:46:32.942Z,1013.03
2018-10-02T09:47:32.932Z,1013.08
2018-10-02T09:48:32.991Z,1013.06
2018-10-02T09:49:32.923Z,1013.02
2018-10-02T09:50:32.945Z,1013.03
2018-10-02T09:51:32.907Z,1013.00
2018-10-02T09:52:32.892Z,1013.04
2018-10-02T09:53:32.891Z,1013.04
2018-10-02T09:54:32.938Z,1013.04
2018-10-02T09:55:32.881Z,1013.05
2018-10-02T09:56:32.878Z,1013.02
2018-10-02T09:57:32.857Z,1013.07
2018-10-02T09:58:32.908Z,1013.01
2018-10-02T09:59:32.848Z,1013.02
2018-10-02T10:00:32.893Z,1013.02
2018-10-02T10:01:32.828Z,1013.03
2018-10-02T10:02:32.880Z,1013.04
2018-10-02T10:03:32.814Z,1012.98
2018-10-02T10:04:32.806Z,1012.98
2018-10-02T10:05:32.805Z,1012.92
2018-10-02T10:06:32.798Z,1012.94
2018-10-02T10:07:32.791Z,1012.90
2018-10-02T10:08:32.783Z,1012.91
2018-10-02T10:09:32.771Z,1012.90
2018-10-02T10:10:32.850Z,1012.89
2018-10-02T10:11:32.756Z,1012.87
2018-10-02T10:12:32.749Z,1012.88
2018-10-02T10:13:32.745Z,1012.84
2018-10-02T10:14:32.740Z,1012.87
2018-10-02T10:15:32.727Z,1012.87
2018-10-02T10:16:32.814Z,1012.78
2018-10-02T10:17:32.781Z,1012.81
2018-10-02T10:18:32.711Z,1012.77
2018-10-02T10:19:32.704Z,1012.78
2018-10-02T10:20:32.697Z,1012.75
2018-10-02T10:21:32.683Z,1012.70
2018-10-02T10:22:32.740Z,1012.68
2018-10-02T10:23:32.669Z,1012.76
2018-10-02T10:24:32.664Z,1012.70
2018-10-02T10:25:32.659Z,1012.61
2018-10-02T10:26:32.663Z,1012.63
2018-10-02T10:27:32.645Z,1012.61
2018-10-02T10:28:32.704Z,1012.63
2018-10-02T10:29:32.625Z,1012.61
2018-10-02T10:30:32.623Z,1012.57
2018-10-02T10:31:32.615Z,1012.56
2018-10-02T10:32:32.608Z,1012.53
2018-10-02T10:33:32.618Z,1012.49
2018-10-02T10:34:32.603Z,1012.47
2018-10-02T10:35:32.583Z,1012.47
2018-10-02T10:36:32.573Z,1012.49
2018-10-02T10:37:32.573Z,1012.48
2018-10-02T10:38:32.565Z,1012.55
2018-10-02T10:39:32.560Z,1012.55
2018-10-02T10:40:32.604Z,1012.52
2018-10-02T10:41:32.538Z,1012.56
2018-10-02T10:42:32.530Z,1012.57
2018-10-02T10:43:32.524Z,1012.52
2018-10-02T10:44:32.516Z,1012.54
2018-10-02T10:45:32.513Z,1012.50
2018-10-02T10:46:32.559Z,1012.47
2018-10-02T10:47:32.507Z,1012.47
2018-10-02T10:48:32.485Z,1012.53
2018-10-02T10:49:32.482Z,1012.50
2018-10-02T10:50:32.481Z,1012.43
2018-10-02T10:51:32.470Z,1012.48
2018-10-02T10:52:32.512Z,1012.46
2018-10-02T10:53:32.452Z,1012.54
2018-10-02T10:54:32.443Z,1012.49
2018-10-02T10:55:32.436Z,1012.44
2018-10-02T10:56:32.492Z,1012.39
2018-10-02T10:57:32.423Z,1012.47
2018-10-02T10:58:32.430Z,1012.44
2018-10-02T10:59:32.409Z,1012.42
2018-10-02T11:00:32.403Z,1012.45
2018-10-02T11:01:32.391Z,1012.37
2018-10-02T11:02:32.381Z,1012.40
2018-10-02T11:03:32.380Z,1012.39
2018-10-02T11:04:32.401Z,1012.35
2018-10-02T11:05:32.359Z,1012.40
2018-10-02T11:06:32.352Z,1012.33
2018-10-02T11:07:32.345Z,1012.39
2018-10-02T11:08:32.337Z,1012.35
2018-10-02T11:09:32.357Z,1012.38
2018-10-02T11:10:32.328Z,1012.36
2018-10-02T11:11:32.322Z,1012.32
2018-10-02T11:12:32.315Z,1012.37
2018-10-02T11:13:32.300Z,1012.40
2018-10-02T11:14:32.293Z,1012.40
2018-10-02T11:15:32.289Z,1012.49
2018-10-02T11:16:32.279Z,1012.42
2018-10-02T11:17:32.277Z,1012.47
2018-10-02T11:18:32.274Z,1012.47
2018-10-02T11:19:32.321Z,1012.55
2018-10-02T11:20:32.250Z,1012.49
2018-10-02T11:21:32.296Z,1012.57
2018-10-02T11:22:32.241Z,1012.54
2018-10-02T11:23:32.233Z,1012.48
2018-10-02T11:24:32.225Z,1012.49
2018-10-02T11:25:32.269Z,1012.48
2018-10-02T11:26:32.207Z,1012.55
2018-10-02T11:27:32.202Z,1012.52
2018-10-02T11:28:32.192Z,1012.58
2018-10-02T11:29:32.191Z,1012.53
2018-10-02T11:30:32.185Z,1012.61
2018-10-02T11:31:32.199Z,1012.56
2018-10-02T11:32:32.169Z,1012.57
2018-10-02T11:33:32.156Z,1012.48
2018-10-02T11:34:32.151Z,1012.55
2018-10-02T11:35:32.296Z,1012.46
2018-10-02T11:36:32.140Z,1012.52
2018-10-02T11:37:32.202Z,1012.50
2018-10-02T11:38:32.120Z,1012.47
2018-10-02T11:39:32.114Z,1012.52
2018-10-02T11:40:32.106Z,1012.52
2018-10-02T11:41:32.104Z,1012.49
2018-10-02T11:42:32.098Z,1012.38
2018-10-02T11:43:32.103Z,1012.42
2018-10-02T11:44:32.136Z,1012.34
2018-10-02T11:45:32.075Z,1012.26
2018-10-02T11:46:32.065Z,1012.33
2018-10-02T11:47:32.057Z,1012.29
2018-10-02T11:48:32.050Z,1012.26
2018-10-02T11:49:32.055Z,1012.29
2018-10-02T11:50:32.042Z,1012.24
2018-10-02T11:51:32.030Z,1012.28
2018-10-02T11:52:32.022Z,1012.21
2018-10-02T11:53:32.021Z,1012.24
2018-10-02T11:54:32.014Z,1012.24
2018-10-02T11:55:32.057Z,1012.22
2018-10-02T11:56:31.998Z,1012.20
2018-10-02T11:57:31.992Z,1012.18
2018-10-02T11:58:31.982Z,1012.16
2018-10-02T11:59:31.975Z,1012.17
2018-10-02T12:00:32.031Z,1012.16
2018-10-02T12:01:31.964Z,1012.12
2018-10-02T12:02:31.970Z,1012.14
2018-10-02T12:03:31.989Z,1012.13
2018-10-02T12:04:31.943Z,1012.12
2018-10-02T12:05:31.933Z,1012.09